sensor_id;sensor_type;location;lat;lon;timestamp;temperature;humidity
37910;DHT22;23741;49.446;8.754;2023-12-20T00:01:34;9.60;73.30
37910;DHT22;23741;49.446;8.754;2023-12-20T00:03:36;9.60;73.40
37910;DHT22;23741;49.446;8.754;2023-12-20T00:05:43;9.60;73.40
37910;DHT22;23741;49.446;8.754;2023-12-20T00:07:45;9.60;73.40
37910;DHT22;23741;49.446;8.754;2023-12-20T00:09:47;9.60;73.40
37910;DHT22;23741;49.446;8.754;2023-12-20T00:11:49;9.60;73.40
37910;DHT22;23741;49.446;8.754;2023-12-20T00:13:51;9.60;73.50
37910;DHT22;23741;49.446;8.754;2023-12-20T00:15:53;9.70;73.70
37910;DHT22;23741;49.446;8.754;2023-12-20T00:17:55;9.70;73.70
37910;DHT22;23741;49.446;8.754;2023-12-20T00:19:57;9.70;73.70
37910;DHT22;23741;49.446;8.754;2023-12-20T00:21:59;9.70;73.70
37910;DHT22;23741;49.446;8.754;2023-12-20T00:24:01;9.70;73.70
37910;DHT22;23741;49.446;8.754;2023-12-20T00:26:03;9.70;73.70
37910;DHT22;23741;49.446;8.754;2023-12-20T00:28:05;9.70;73.90
37910;DHT22;23741;49.446;8.754;2023-12-20T00:30:07;9.80;73.80
37910;DHT22;23741;49.446;8.754;2023-12-20T00:32:10;9.80;73.40
37910;DHT22;23741;49.446;8.754;2023-12-20T00:34:11;9.80;73.30
37910;DHT22;23741;49.446;8.754;2023-12-20T00:36:13;9.80;73.30
37910;DHT22;23741;49.446;8.754;2023-12-20T00:38:15;9.80;73.40
37910;DHT22;23741;49.446;8.754;2023-12-20T00:40:17;9.80;73.50
37910;DHT22;23741;49.446;8.754;2023-12-20T00:42:19;9.80;73.30
37910;DHT22;23741;49.446;8.754;2023-12-20T00:44:20;9.80;73.10
37910;DHT22;23741;49.446;8.754;2023-12-20T00:46:22;9.80;73.00
37910;DHT22;23741;49.446;8.754;2023-12-20T00:48:24;9.80;73.10
37910;DHT22;23741;49.446;8.754;2023-12-20T00:50:28;9.80;73.20
37910;DHT22;23741;49.446;8.754;2023-12-20T00:52:31;9.80;73.30
37910;DHT22;23741;49.446;8.754;2023-12-20T00:54:33;9.80;73.10
37910;DHT22;23741;49.446;8.754;2023-12-20T00:56:35;9.80;73.10
37910;DHT22;23741;49.446;8.754;2023-12-20T00:58:36;9.80;73.10
37910;DHT22;23741;49.446;8.754;2023-12-20T01:00:38;9.80;73.10
37910;DHT22;23741;49.446;8.754;2023-12-20T01:02:44;9.80;73.10
37910;DHT22;23741;49.446;8.754;2023-12-20T01:04:48;9.80;73.00
37910;DHT22;23741;49.446;8.754;2023-12-20T01:06:49;9.80;73.10
37910;DHT22;23741;49.446;8.754;2023-12-20T01:08:51;9.80;72.90
37910;DHT22;23741;49.446;8.754;2023-12-20T01:10:53;9.80;73.00
37910;DHT22;23741;49.446;8.754;2023-12-20T01:12:55;9.80;73.10
37910;DHT22;23741;49.446;8.754;2023-12-20T01:14:56;9.70;72.90
37910;DHT22;23741;49.446;8.754;2023-12-20T01:17:00;9.80;73.30
37910;DHT22;23741;49.446;8.754;2023-12-20T01:19:01;9.80;73.30
37910;DHT22;23741;49.446;8.754;2023-12-20T01:21:03;9.80;73.50
37910;DHT22;23741;49.446;8.754;2023-12-20T01:23:05;9.80;73.50
37910;DHT22;23741;49.446;8.754;2023-12-20T01:25:07;9.80;73.40
37910;DHT22;23741;49.446;8.754;2023-12-20T01:27:09;9.80;73.50
37910;DHT22;23741;49.446;8.754;2023-12-20T01:29:11;9.80;73.40
37910;DHT22;23741;49.446;8.754;2023-12-20T01:31:14;9.80;73.30
37910;DHT22;23741;49.446;8.754;2023-12-20T01:33:16;9.80;73.20
37910;DHT22;23741;49.446;8.754;2023-12-20T01:35:18;9.80;73.10
37910;DHT22;23741;49.446;8.754;2023-12-20T01:37:20;9.80;72.90
37910;DHT22;23741;49.446;8.754;2023-12-20T01:39:22;9.90;72.80
37910;DHT22;23741;49.446;8.754;2023-12-20T01:41:30;9.80;72.90
37910;DHT22;23741;49.446;8.754;2023-12-20T01:43:32;9.80;73.00
37910;DHT22;23741;49.446;8.754;2023-12-20T01:45:48;9.80;73.10
37910;DHT22;23741;49.446;8.754;2023-12-20T01:47:50;9.80;73.20
37910;DHT22;23741;49.446;8.754;2023-12-20T01:49:52;9.80;73.20
37910;DHT22;23741;49.446;8.754;2023-12-20T01:51:54;9.80;73.30
37910;DHT22;23741;49.446;8.754;2023-12-20T01:53:56;9.80;73.20
37910;DHT22;23741;49.446;8.754;2023-12-20T01:55:59;9.80;73.30
37910;DHT22;23741;49.446;8.754;2023-12-20T01:58:01;9.80;72.90
37910;DHT22;23741;49.446;8.754;2023-12-20T02:00:04;9.80;73.00
37910;DHT22;23741;49.446;8.754;2023-12-20T02:02:06;9.80;72.80
37910;DHT22;23741;49.446;8.754;2023-12-20T02:04:09;9.80;72.70
37910;DHT22;23741;49.446;8.754;2023-12-20T02:06:11;9.80;72.80
37910;DHT22;23741;49.446;8.754;2023-12-20T02:08:13;9.70;72.80
37910;DHT22;23741;49.446;8.754;2023-12-20T02:10:15;9.70;72.50
37910;DHT22;23741;49.446;8.754;2023-12-20T02:12:17;9.70;72.50
37910;DHT22;23741;49.446;8.754;2023-12-20T02:14:20;9.70;72.70
37910;DHT22;23741;49.446;8.754;2023-12-20T02:16:22;9.70;72.80
37910;DHT22;23741;49.446;8.754;2023-12-20T02:18:24;9.70;72.80
37910;DHT22;23741;49.446;8.754;2023-12-20T02:20:26;9.70;72.80
37910;DHT22;23741;49.446;8.754;2023-12-20T02:22:28;9.70;72.70
37910;DHT22;23741;49.446;8.754;2023-12-20T02:24:29;9.70;72.80
37910;DHT22;23741;49.446;8.754;2023-12-20T02:26:34;9.70;72.80
37910;DHT22;23741;49.446;8.754;2023-12-20T02:28:36;9.70;72.70
37910;DHT22;23741;49.446;8.754;2023-12-20T02:30:38;9.70;72.80
37910;DHT22;23741;49.446;8.754;2023-12-20T02:32:42;9.60;73.00
37910;DHT22;23741;49.446;8.754;2023-12-20T02:34:44;9.70;73.10
37910;DHT22;23741;49.446;8.754;2023-12-20T02:36:46;9.70;73.00
37910;DHT22;23741;49.446;8.754;2023-12-20T02:38:47;9.70;72.70
37910;DHT22;23741;49.446;8.754;2023-12-20T02:40:49;9.60;72.70
37910;DHT22;23741;49.446;8.754;2023-12-20T02:42:51;9.60;72.80
37910;DHT22;23741;49.446;8.754;2023-12-20T02:44:53;9.60;72.80
37910;DHT22;23741;49.446;8.754;2023-12-20T02:46:54;9.60;72.80
37910;DHT22;23741;49.446;8.754;2023-12-20T02:48:56;9.60;72.90
37910;DHT22;23741;49.446;8.754;2023-12-20T02:50:58;9.60;72.70
37910;DHT22;23741;49.446;8.754;2023-12-20T02:53:00;9.60;72.80
37910;DHT22;23741;49.446;8.754;2023-12-20T02:55:02;9.60;72.70
37910;DHT22;23741;49.446;8.754;2023-12-20T02:57:04;9.60;72.80
37910;DHT22;23741;49.446;8.754;2023-12-20T02:59:05;9.60;72.70
37910;DHT22;23741;49.446;8.754;2023-12-20T03:01:09;9.60;72.80
37910;DHT22;23741;49.446;8.754;2023-12-20T03:03:11;9.60;72.90
37910;DHT22;23741;49.446;8.754;2023-12-20T03:05:13;9.60;72.80
37910;DHT22;23741;49.446;8.754;2023-12-20T03:07:15;9.60;73.00
37910;DHT22;23741;49.446;8.754;2023-12-20T03:09:17;9.60;72.90
37910;DHT22;23741;49.446;8.754;2023-12-20T03:11:18;9.60;72.90
37910;DHT22;23741;49.446;8.754;2023-12-20T03:13:20;9.60;72.80
37910;DHT22;23741;49.446;8.754;2023-12-20T03:15:22;9.60;73.00
37910;DHT22;23741;49.446;8.754;2023-12-20T03:17:24;9.60;72.80
37910;DHT22;23741;49.446;8.754;2023-12-20T03:19:26;9.60;72.80
37910;DHT22;23741;49.446;8.754;2023-12-20T03:21:27;9.60;72.80
37910;DHT22;23741;49.446;8.754;2023-12-20T03:23:29;9.60;72.70
37910;DHT22;23741;49.446;8.754;2023-12-20T03:25:32;9.50;72.70
37910;DHT22;23741;49.446;8.754;2023-12-20T03:27:34;9.60;72.70
37910;DHT22;23741;49.446;8.754;2023-12-20T03:29:35;9.50;72.70
37910;DHT22;23741;49.446;8.754;2023-12-20T03:31:37;9.50;72.80
37910;DHT22;23741;49.446;8.754;2023-12-20T03:33:39;9.50;72.90
37910;DHT22;23741;49.446;8.754;2023-12-20T03:35:41;9.50;73.00
37910;DHT22;23741;49.446;8.754;2023-12-20T03:37:43;9.50;73.00
37910;DHT22;23741;49.446;8.754;2023-12-20T03:39:45;9.50;72.80
37910;DHT22;23741;49.446;8.754;2023-12-20T03:41:47;9.50;72.80
37910;DHT22;23741;49.446;8.754;2023-12-20T03:43:48;9.50;73.00
37910;DHT22;23741;49.446;8.754;2023-12-20T03:45:50;9.50;73.10
37910;DHT22;23741;49.446;8.754;2023-12-20T03:47:52;9.50;73.20
37910;DHT22;23741;49.446;8.754;2023-12-20T03:49:58;9.50;73.10
37910;DHT22;23741;49.446;8.754;2023-12-20T03:52:00;9.50;73.20
37910;DHT22;23741;49.446;8.754;2023-12-20T03:54:02;9.50;72.90
37910;DHT22;23741;49.446;8.754;2023-12-20T03:56:03;9.50;73.00
37910;DHT22;23741;49.446;8.754;2023-12-20T03:58:06;9.50;73.10
37910;DHT22;23741;49.446;8.754;2023-12-20T04:00:08;9.50;73.30
37910;DHT22;23741;49.446;8.754;2023-12-20T04:02:13;9.50;73.40
37910;DHT22;23741;49.446;8.754;2023-12-20T04:04:15;9.50;73.10
37910;DHT22;23741;49.446;8.754;2023-12-20T04:06:17;9.50;73.10
37910;DHT22;23741;49.446;8.754;2023-12-20T04:08:19;9.50;73.00
37910;DHT22;23741;49.446;8.754;2023-12-20T04:10:21;9.50;72.90
37910;DHT22;23741;49.446;8.754;2023-12-20T04:12:23;9.50;72.90
37910;DHT22;23741;49.446;8.754;2023-12-20T04:14:25;9.50;72.70
37910;DHT22;23741;49.446;8.754;2023-12-20T04:16:26;9.50;72.70
37910;DHT22;23741;49.446;8.754;2023-12-20T04:18:28;9.50;72.70
37910;DHT22;23741;49.446;8.754;2023-12-20T04:20:30;9.50;72.80
37910;DHT22;23741;49.446;8.754;2023-12-20T04:22:32;9.50;73.00
37910;DHT22;23741;49.446;8.754;2023-12-20T04:24:34;9.50;73.10
37910;DHT22;23741;49.446;8.754;2023-12-20T04:26:35;9.50;73.40
37910;DHT22;23741;49.446;8.754;2023-12-20T04:28:37;9.50;73.30
37910;DHT22;23741;49.446;8.754;2023-12-20T04:30:39;9.50;73.50
37910;DHT22;23741;49.446;8.754;2023-12-20T04:32:41;9.50;73.60
37910;DHT22;23741;49.446;8.754;2023-12-20T04:34:43;9.50;73.70
37910;DHT22;23741;49.446;8.754;2023-12-20T04:36:44;9.50;73.60
37910;DHT22;23741;49.446;8.754;2023-12-20T04:38:46;9.60;73.70
37910;DHT22;23741;49.446;8.754;2023-12-20T04:40:48;9.60;73.70
37910;DHT22;23741;49.446;8.754;2023-12-20T04:42:50;9.60;73.50
37910;DHT22;23741;49.446;8.754;2023-12-20T04:44:52;9.60;73.30
37910;DHT22;23741;49.446;8.754;2023-12-20T04:46:53;9.60;73.10
37910;DHT22;23741;49.446;8.754;2023-12-20T04:48:55;9.60;73.10
37910;DHT22;23741;49.446;8.754;2023-12-20T04:50:57;9.60;73.20
37910;DHT22;23741;49.446;8.754;2023-12-20T04:52:59;9.60;73.40
37910;DHT22;23741;49.446;8.754;2023-12-20T04:55:01;9.60;73.70
37910;DHT22;23741;49.446;8.754;2023-12-20T04:57:03;9.60;73.70
37910;DHT22;23741;49.446;8.754;2023-12-20T04:59:05;9.60;73.70
37910;DHT22;23741;49.446;8.754;2023-12-20T05:01:07;9.60;73.60
37910;DHT22;23741;49.446;8.754;2023-12-20T05:03:10;9.60;73.70
37910;DHT22;23741;49.446;8.754;2023-12-20T05:05:11;9.60;73.80
37910;DHT22;23741;49.446;8.754;2023-12-20T05:07:14;9.60;73.80
37910;DHT22;23741;49.446;8.754;2023-12-20T05:09:15;9.60;73.70
37910;DHT22;23741;49.446;8.754;2023-12-20T05:11:17;9.60;73.70
37910;DHT22;23741;49.446;8.754;2023-12-20T05:13:19;9.70;73.70
37910;DHT22;23741;49.446;8.754;2023-12-20T05:15:21;9.60;73.70
37910;DHT22;23741;49.446;8.754;2023-12-20T05:17:23;9.70;73.80
37910;DHT22;23741;49.446;8.754;2023-12-20T05:19:24;9.70;73.70
37910;DHT22;23741;49.446;8.754;2023-12-20T05:21:26;9.70;73.80
37910;DHT22;23741;49.446;8.754;2023-12-20T05:23:28;9.70;73.80
37910;DHT22;23741;49.446;8.754;2023-12-20T05:25:30;9.70;74.00
37910;DHT22;23741;49.446;8.754;2023-12-20T05:27:32;9.70;74.00
37910;DHT22;23741;49.446;8.754;2023-12-20T05:29:33;9.70;73.90
37910;DHT22;23741;49.446;8.754;2023-12-20T05:31:35;9.80;74.10
37910;DHT22;23741;49.446;8.754;2023-12-20T05:33:37;9.70;74.20
37910;DHT22;23741;49.446;8.754;2023-12-20T05:35:39;9.80;74.60
37910;DHT22;23741;49.446;8.754;2023-12-20T05:37:41;9.80;74.60
37910;DHT22;23741;49.446;8.754;2023-12-20T05:39:43;9.80;74.60
37910;DHT22;23741;49.446;8.754;2023-12-20T05:41:45;9.80;74.60
37910;DHT22;23741;49.446;8.754;2023-12-20T05:43:47;9.90;74.70
37910;DHT22;23741;49.446;8.754;2023-12-20T05:45:48;9.90;74.80
37910;DHT22;23741;49.446;8.754;2023-12-20T05:47:50;9.90;74.80
37910;DHT22;23741;49.446;8.754;2023-12-20T05:49:52;9.90;74.70
37910;DHT22;23741;49.446;8.754;2023-12-20T05:51:54;9.90;74.60
37910;DHT22;23741;49.446;8.754;2023-12-20T05:53:56;9.90;74.50
37910;DHT22;23741;49.446;8.754;2023-12-20T05:55:58;10.00;74.50
37910;DHT22;23741;49.446;8.754;2023-12-20T05:57:59;10.00;74.50
37910;DHT22;23741;49.446;8.754;2023-12-20T06:00:03;10.00;74.60
37910;DHT22;23741;49.446;8.754;2023-12-20T06:02:12;10.00;74.40
37910;DHT22;23741;49.446;8.754;2023-12-20T06:04:14;10.00;74.40
37910;DHT22;23741;49.446;8.754;2023-12-20T06:06:16;10.10;74.40
37910;DHT22;23741;49.446;8.754;2023-12-20T06:08:19;10.10;74.30
37910;DHT22;23741;49.446;8.754;2023-12-20T06:10:21;10.10;74.50
37910;DHT22;23741;49.446;8.754;2023-12-20T06:12:24;10.10;74.20
37910;DHT22;23741;49.446;8.754;2023-12-20T06:14:28;10.10;74.30
37910;DHT22;23741;49.446;8.754;2023-12-20T06:16:29;10.10;74.20
37910;DHT22;23741;49.446;8.754;2023-12-20T06:18:31;10.10;74.30
37910;DHT22;23741;49.446;8.754;2023-12-20T06:20:33;10.10;74.20
37910;DHT22;23741;49.446;8.754;2023-12-20T06:22:35;10.10;74.20
37910;DHT22;23741;49.446;8.754;2023-12-20T06:24:38;10.10;74.10
37910;DHT22;23741;49.446;8.754;2023-12-20T06:26:39;10.20;74.20
37910;DHT22;23741;49.446;8.754;2023-12-20T06:28:41;10.10;74.00
37910;DHT22;23741;49.446;8.754;2023-12-20T06:30:43;10.20;74.00
37910;DHT22;23741;49.446;8.754;2023-12-20T06:32:45;10.20;74.00
37910;DHT22;23741;49.446;8.754;2023-12-20T06:34:53;10.20;74.00
37910;DHT22;23741;49.446;8.754;2023-12-20T06:36:55;10.20;74.10
37910;DHT22;23741;49.446;8.754;2023-12-20T06:38:57;10.20;74.20
37910;DHT22;23741;49.446;8.754;2023-12-20T06:40:59;10.20;74.20
37910;DHT22;23741;49.446;8.754;2023-12-20T06:43:01;10.20;74.20
37910;DHT22;23741;49.446;8.754;2023-12-20T06:45:16;10.20;74.10
37910;DHT22;23741;49.446;8.754;2023-12-20T06:47:18;10.20;74.10
37910;DHT22;23741;49.446;8.754;2023-12-20T06:49:20;10.20;74.20
37910;DHT22;23741;49.446;8.754;2023-12-20T06:51:22;10.20;74.20
37910;DHT22;23741;49.446;8.754;2023-12-20T06:53:26;10.20;74.10
37910;DHT22;23741;49.446;8.754;2023-12-20T06:55:28;10.20;74.00
37910;DHT22;23741;49.446;8.754;2023-12-20T06:57:31;10.30;74.10
37910;DHT22;23741;49.446;8.754;2023-12-20T06:59:33;10.30;74.00
37910;DHT22;23741;49.446;8.754;2023-12-20T07:01:34;10.20;73.90
37910;DHT22;23741;49.446;8.754;2023-12-20T07:03:39;10.30;73.80
37910;DHT22;23741;49.446;8.754;2023-12-20T07:05:41;10.30;73.50
37910;DHT22;23741;49.446;8.754;2023-12-20T07:07:43;10.30;73.40
37910;DHT22;23741;49.446;8.754;2023-12-20T07:09:45;10.30;73.40
37910;DHT22;23741;49.446;8.754;2023-12-20T07:11:47;10.30;73.40
37910;DHT22;23741;49.446;8.754;2023-12-20T07:13:52;10.30;73.30
37910;DHT22;23741;49.446;8.754;2023-12-20T07:16:23;10.20;73.20
37910;DHT22;23741;49.446;8.754;2023-12-20T07:18:26;10.20;73.10
37910;DHT22;23741;49.446;8.754;2023-12-20T07:20:28;10.20;73.10
37910;DHT22;23741;49.446;8.754;2023-12-20T07:22:30;10.20;73.00
37910;DHT22;23741;49.446;8.754;2023-12-20T07:24:35;10.20;73.00
37910;DHT22;23741;49.446;8.754;2023-12-20T07:26:36;10.20;72.90
37910;DHT22;23741;49.446;8.754;2023-12-20T07:28:39;10.20;72.90
37910;DHT22;23741;49.446;8.754;2023-12-20T07:30:42;10.20;73.00
37910;DHT22;23741;49.446;8.754;2023-12-20T07:32:44;10.20;72.90
37910;DHT22;23741;49.446;8.754;2023-12-20T07:34:46;10.20;73.10
37910;DHT22;23741;49.446;8.754;2023-12-20T07:36:48;10.20;73.10
37910;DHT22;23741;49.446;8.754;2023-12-20T07:38:50;10.10;73.10
37910;DHT22;23741;49.446;8.754;2023-12-20T07:40:52;10.20;73.10
37910;DHT22;23741;49.446;8.754;2023-12-20T07:42:53;10.20;73.00
37910;DHT22;23741;49.446;8.754;2023-12-20T07:44:55;10.10;72.90
37910;DHT22;23741;49.446;8.754;2023-12-20T07:46:57;10.20;73.00
37910;DHT22;23741;49.446;8.754;2023-12-20T07:48:59;10.10;72.90
37910;DHT22;23741;49.446;8.754;2023-12-20T07:51:01;10.10;72.70
37910;DHT22;23741;49.446;8.754;2023-12-20T07:53:03;10.10;72.60
37910;DHT22;23741;49.446;8.754;2023-12-20T07:55:05;10.10;72.50
37910;DHT22;23741;49.446;8.754;2023-12-20T07:57:07;10.10;72.40
37910;DHT22;23741;49.446;8.754;2023-12-20T07:59:09;10.00;72.40
37910;DHT22;23741;49.446;8.754;2023-12-20T08:01:26;10.00;72.40
37910;DHT22;23741;49.446;8.754;2023-12-20T08:03:28;10.00;72.40
37910;DHT22;23741;49.446;8.754;2023-12-20T08:05:30;10.00;72.50
37910;DHT22;23741;49.446;8.754;2023-12-20T08:07:31;10.00;72.50
37910;DHT22;23741;49.446;8.754;2023-12-20T08:09:33;10.00;72.50
37910;DHT22;23741;49.446;8.754;2023-12-20T08:11:38;10.00;72.60
37910;DHT22;23741;49.446;8.754;2023-12-20T08:13:40;10.00;72.70
37910;DHT22;23741;49.446;8.754;2023-12-20T08:15:41;10.00;72.80
37910;DHT22;23741;49.446;8.754;2023-12-20T08:17:43;10.00;73.00
37910;DHT22;23741;49.446;8.754;2023-12-20T08:19:46;10.00;73.10
37910;DHT22;23741;49.446;8.754;2023-12-20T08:21:48;10.00;73.00
37910;DHT22;23741;49.446;8.754;2023-12-20T08:23:50;10.00;73.00
37910;DHT22;23741;49.446;8.754;2023-12-20T08:25:51;9.90;73.10
37910;DHT22;23741;49.446;8.754;2023-12-20T08:27:53;10.00;73.20
37910;DHT22;23741;49.446;8.754;2023-12-20T08:29:55;10.00;73.20
37910;DHT22;23741;49.446;8.754;2023-12-20T08:31:57;10.00;73.20
37910;DHT22;23741;49.446;8.754;2023-12-20T08:33:59;10.00;73.40
37910;DHT22;23741;49.446;8.754;2023-12-20T08:36:01;10.00;73.40
37910;DHT22;23741;49.446;8.754;2023-12-20T08:38:06;10.00;73.30
37910;DHT22;23741;49.446;8.754;2023-12-20T08:40:08;10.00;73.30
37910;DHT22;23741;49.446;8.754;2023-12-20T08:42:11;10.00;73.30
37910;DHT22;23741;49.446;8.754;2023-12-20T08:44:12;10.00;73.20
37910;DHT22;23741;49.446;8.754;2023-12-20T08:46:14;10.00;73.00
37910;DHT22;23741;49.446;8.754;2023-12-20T08:48:17;10.10;72.80
37910;DHT22;23741;49.446;8.754;2023-12-20T08:50:19;10.00;72.60
37910;DHT22;23741;49.446;8.754;2023-12-20T08:52:21;10.00;72.50
37910;DHT22;23741;49.446;8.754;2023-12-20T08:54:23;10.00;72.50
37910;DHT22;23741;49.446;8.754;2023-12-20T08:56:24;10.00;72.60
37910;DHT22;23741;49.446;8.754;2023-12-20T08:58:26;10.00;72.70
37910;DHT22;23741;49.446;8.754;2023-12-20T09:00:28;10.00;72.60
37910;DHT22;23741;49.446;8.754;2023-12-20T09:02:31;10.00;72.60
37910;DHT22;23741;49.446;8.754;2023-12-20T09:04:33;10.00;72.50
37910;DHT22;23741;49.446;8.754;2023-12-20T09:06:35;10.00;72.50
37910;DHT22;23741;49.446;8.754;2023-12-20T09:08:37;10.00;72.60
37910;DHT22;23741;49.446;8.754;2023-12-20T09:10:38;10.00;72.60
37910;DHT22;23741;49.446;8.754;2023-12-20T09:12:40;10.00;72.60
37910;DHT22;23741;49.446;8.754;2023-12-20T09:14:44;10.00;72.60
37910;DHT22;23741;49.446;8.754;2023-12-20T09:16:46;10.00;72.70
37910;DHT22;23741;49.446;8.754;2023-12-20T09:18:48;10.00;72.80
37910;DHT22;23741;49.446;8.754;2023-12-20T09:20:50;10.00;72.80
37910;DHT22;23741;49.446;8.754;2023-12-20T09:22:52;10.00;72.80
37910;DHT22;23741;49.446;8.754;2023-12-20T09:24:54;10.00;72.80
37910;DHT22;23741;49.446;8.754;2023-12-20T09:26:55;10.00;73.00
37910;DHT22;23741;49.446;8.754;2023-12-20T09:28:57;10.10;73.20
37910;DHT22;23741;49.446;8.754;2023-12-20T09:30:59;10.10;73.00
37910;DHT22;23741;49.446;8.754;2023-12-20T09:33:01;10.10;72.70
37910;DHT22;23741;49.446;8.754;2023-12-20T09:35:03;10.10;72.50
37910;DHT22;23741;49.446;8.754;2023-12-20T09:37:07;10.10;72.40
37910;DHT22;23741;49.446;8.754;2023-12-20T09:39:09;10.10;72.40
37910;DHT22;23741;49.446;8.754;2023-12-20T09:41:11;10.10;72.30
37910;DHT22;23741;49.446;8.754;2023-12-20T09:43:18;10.10;72.30
37910;DHT22;23741;49.446;8.754;2023-12-20T09:45:20;10.10;72.30
37910;DHT22;23741;49.446;8.754;2023-12-20T09:47:25;10.10;72.30
37910;DHT22;23741;49.446;8.754;2023-12-20T09:49:27;10.10;72.40
37910;DHT22;23741;49.446;8.754;2023-12-20T09:51:29;10.10;72.40
37910;DHT22;23741;49.446;8.754;2023-12-20T09:53:31;10.10;72.30
37910;DHT22;23741;49.446;8.754;2023-12-20T09:55:35;10.10;72.40
37910;DHT22;23741;49.446;8.754;2023-12-20T09:57:37;10.10;72.40
37910;DHT22;23741;49.446;8.754;2023-12-20T09:59:39;10.10;72.40
37910;DHT22;23741;49.446;8.754;2023-12-20T10:01:42;10.10;72.40
37910;DHT22;23741;49.446;8.754;2023-12-20T10:03:45;10.00;72.40
37910;DHT22;23741;49.446;8.754;2023-12-20T10:05:46;10.10;72.50
37910;DHT22;23741;49.446;8.754;2023-12-20T10:07:51;10.10;72.60
37910;DHT22;23741;49.446;8.754;2023-12-20T10:09:54;10.10;72.70
37910;DHT22;23741;49.446;8.754;2023-12-20T10:11:56;10.20;72.90
37910;DHT22;23741;49.446;8.754;2023-12-20T10:13:59;10.10;72.90
37910;DHT22;23741;49.446;8.754;2023-12-20T10:16:02;10.10;72.80
37910;DHT22;23741;49.446;8.754;2023-12-20T10:18:04;10.20;72.70
37910;DHT22;23741;49.446;8.754;2023-12-20T10:20:07;10.20;72.50
37910;DHT22;23741;49.446;8.754;2023-12-20T10:22:11;10.20;72.50
37910;DHT22;23741;49.446;8.754;2023-12-20T10:24:17;10.20;72.60
37910;DHT22;23741;49.446;8.754;2023-12-20T10:26:20;10.20;72.80
37910;DHT22;23741;49.446;8.754;2023-12-20T10:28:22;10.20;72.80
37910;DHT22;23741;49.446;8.754;2023-12-20T10:30:31;10.20;72.80
37910;DHT22;23741;49.446;8.754;2023-12-20T10:32:33;10.20;72.70
37910;DHT22;23741;49.446;8.754;2023-12-20T10:34:35;10.20;72.70
37910;DHT22;23741;49.446;8.754;2023-12-20T10:36:37;10.30;72.70
37910;DHT22;23741;49.446;8.754;2023-12-20T10:38:40;10.30;72.50
37910;DHT22;23741;49.446;8.754;2023-12-20T10:40:44;10.30;72.40
37910;DHT22;23741;49.446;8.754;2023-12-20T10:42:47;10.30;72.40
37910;DHT22;23741;49.446;8.754;2023-12-20T10:44:49;10.30;72.30
37910;DHT22;23741;49.446;8.754;2023-12-20T10:46:51;10.30;72.30
37910;DHT22;23741;49.446;8.754;2023-12-20T10:49:02;10.30;72.30
37910;DHT22;23741;49.446;8.754;2023-12-20T10:51:04;10.30;72.20
37910;DHT22;23741;49.446;8.754;2023-12-20T10:53:06;10.30;72.30
37910;DHT22;23741;49.446;8.754;2023-12-20T10:55:08;10.30;72.30
37910;DHT22;23741;49.446;8.754;2023-12-20T10:57:10;10.30;72.40
37910;DHT22;23741;49.446;8.754;2023-12-20T10:59:13;10.30;72.40
37910;DHT22;23741;49.446;8.754;2023-12-20T11:01:19;10.30;72.40
37910;DHT22;23741;49.446;8.754;2023-12-20T11:03:22;10.30;72.40
37910;DHT22;23741;49.446;8.754;2023-12-20T11:07:48;10.40;72.40
37910;DHT22;23741;49.446;8.754;2023-12-20T11:10:36;10.40;72.40
37910;DHT22;23741;49.446;8.754;2023-12-20T11:12:18;10.40;72.40
37910;DHT22;23741;49.446;8.754;2023-12-20T11:14:31;10.40;72.30
37910;DHT22;23741;49.446;8.754;2023-12-20T11:16:37;10.40;72.20
37910;DHT22;23741;49.446;8.754;2023-12-20T11:18:52;10.40;72.10
37910;DHT22;23741;49.446;8.754;2023-12-20T11:20:54;10.40;72.00
37910;DHT22;23741;49.446;8.754;2023-12-20T11:22:56;10.40;72.10
37910;DHT22;23741;49.446;8.754;2023-12-20T11:25:02;10.40;71.90
37910;DHT22;23741;49.446;8.754;2023-12-20T11:27:05;10.40;71.70
37910;DHT22;23741;49.446;8.754;2023-12-20T11:31:27;10.40;71.70
37910;DHT22;23741;49.446;8.754;2023-12-20T11:33:29;10.40;71.70
37910;DHT22;23741;49.446;8.754;2023-12-20T11:35:31;10.40;71.80
37910;DHT22;23741;49.446;8.754;2023-12-20T11:37:37;10.40;71.70
37910;DHT22;23741;49.446;8.754;2023-12-20T11:39:39;10.40;71.50
37910;DHT22;23741;49.446;8.754;2023-12-20T11:41:41;10.30;71.60
37910;DHT22;23741;49.446;8.754;2023-12-20T11:43:46;10.40;71.70
37910;DHT22;23741;49.446;8.754;2023-12-20T11:45:49;10.40;71.70
37910;DHT22;23741;49.446;8.754;2023-12-20T11:47:52;10.40;71.60
37910;DHT22;23741;49.446;8.754;2023-12-20T11:49:57;10.40;71.70
37910;DHT22;23741;49.446;8.754;2023-12-20T11:51:59;10.40;71.70
37910;DHT22;23741;49.446;8.754;2023-12-20T11:54:02;10.40;71.70
37910;DHT22;23741;49.446;8.754;2023-12-20T11:56:05;10.40;71.80
37910;DHT22;23741;49.446;8.754;2023-12-20T11:58:07;10.40;71.70
37910;DHT22;23741;49.446;8.754;2023-12-20T12:00:11;10.40;71.60
37910;DHT22;23741;49.446;8.754;2023-12-20T12:02:13;10.30;71.50
37910;DHT22;23741;49.446;8.754;2023-12-20T12:04:15;10.30;71.40
37910;DHT22;23741;49.446;8.754;2023-12-20T12:06:19;10.30;71.30
37910;DHT22;23741;49.446;8.754;2023-12-20T12:08:21;10.30;71.20
37910;DHT22;23741;49.446;8.754;2023-12-20T12:10:22;10.30;71.30
37910;DHT22;23741;49.446;8.754;2023-12-20T12:12:24;10.30;71.40
37910;DHT22;23741;49.446;8.754;2023-12-20T12:14:31;10.30;71.30
37910;DHT22;23741;49.446;8.754;2023-12-20T12:16:32;10.20;71.20
37910;DHT22;23741;49.446;8.754;2023-12-20T12:18:35;10.20;71.40
37910;DHT22;23741;49.446;8.754;2023-12-20T12:20:37;10.20;71.40
37910;DHT22;23741;49.446;8.754;2023-12-20T12:22:39;10.20;71.50
37910;DHT22;23741;49.446;8.754;2023-12-20T12:24:45;10.20;71.70
37910;DHT22;23741;49.446;8.754;2023-12-20T12:26:50;10.20;72.00
37910;DHT22;23741;49.446;8.754;2023-12-20T12:28:52;10.20;71.90
37910;DHT22;23741;49.446;8.754;2023-12-20T12:30:57;10.30;71.80
37910;DHT22;23741;49.446;8.754;2023-12-20T12:33:00;10.20;71.50
37910;DHT22;23741;49.446;8.754;2023-12-20T12:35:05;10.20;71.50
37910;DHT22;23741;49.446;8.754;2023-12-20T12:37:11;10.20;71.60
37910;DHT22;23741;49.446;8.754;2023-12-20T12:39:17;10.20;72.50
37910;DHT22;23741;49.446;8.754;2023-12-20T12:41:19;10.20;71.70
37910;DHT22;23741;49.446;8.754;2023-12-20T12:43:21;10.30;71.80
37910;DHT22;23741;49.446;8.754;2023-12-20T12:45:24;10.30;71.90
37910;DHT22;23741;49.446;8.754;2023-12-20T12:47:28;10.30;71.80
37910;DHT22;23741;49.446;8.754;2023-12-20T12:49:30;10.30;71.60
37910;DHT22;23741;49.446;8.754;2023-12-20T12:51:32;10.30;71.60
37910;DHT22;23741;49.446;8.754;2023-12-20T12:53:34;10.30;71.50
37910;DHT22;23741;49.446;8.754;2023-12-20T12:55:35;10.30;71.50
37910;DHT22;23741;49.446;8.754;2023-12-20T12:57:38;10.30;71.50
37910;DHT22;23741;49.446;8.754;2023-12-20T12:59:40;10.30;71.60
37910;DHT22;23741;49.446;8.754;2023-12-20T13:01:42;10.30;71.60
37910;DHT22;23741;49.446;8.754;2023-12-20T13:03:44;10.30;71.50
37910;DHT22;23741;49.446;8.754;2023-12-20T13:05:46;10.30;72.20